Overview Statistics Trail Chart Weather Telemetry Raw packets
 

This is the latest recevied weather packets stored in our database for station/object DK6GC-10. If no packets are shown the sender has not sent any weather packets the latest 10 day(s).

<< 27 28 29 30 31 32 33 >>
Time Temp. Humidity Pressure Rain* Wind** Luminosity Snow
1788048918 20.56° C 63% 1016.7 hPa - - - -
1788048022 20.56° C 63% 1016.7 hPa - - - -
1788047122 20.56° C 66% 1016.8 hPa - - - -
1788046222 20.56° C 66% 1016.7 hPa - - - -
1788045322 21.11° C 64% 1016.4 hPa - - - -
1788044421 21.67° C 58% 1016.2 hPa - - - -
1788043521 21.67° C 57% 1016.2 hPa - - - -
1788042621 21.67° C 56% 1016.2 hPa - - - -
1788041721 22.22° C 56% 1016.2 hPa - - - -
1788040820 22.22° C 54% 1016.2 hPa - - - -
1788039920 21.67° C 55% 1016.1 hPa - - - -
1788039020 21.67° C 55% 1016.1 hPa - - - -
1788038120 21.67° C 57% 1016.1 hPa - - - -
1788037221 21.67° C 58% 1016.2 hPa - - - -
1788036320 22.22° C 54% 1016.1 hPa - - - -
1788035420 22.22° C 51% 1015.7 hPa - - - -
1788034519 22.22° C 51% 1015.8 hPa - - - -
1788033619 22.22° C 51% 1015.9 hPa - - - -
1788032719 22.22° C 51% 1015.8 hPa - - - -
1788031822 22.22° C 52% 1015.8 hPa - - - -
1788030919 21.67° C 52% 1015.9 hPa - - - -
1788030018 21.11° C 56% 1015.8 hPa - - - -
1788029118 21.11° C 55% 1015.7 hPa - - - -
1788028218 21.67° C 54% 1015.7 hPa - - - -
1788027328 22.22° C 50% 1015.8 hPa - - - -

* Rain since midnight (hover to see other rain measurements)
** Current wind speed in m/s (hover to see current wind gust speed)